Time;durP1;ratioP1;P1;durP2;ratioP2;P2;SDS_P1;SDS_P2;PMS_P1;PMS_P2;Temp;Humidity;BMP_temperature;BMP_pressure;BME280_temperature;BME280_humidity;BME280_pressure;Samples;Min_cycle;Max_cycle;Signal;HPM_P1;HPM_P2
2023/07/17 00:00:21;;;;;;;1.60;1.50;;;;;;;23.71;82.17;95659.38;4341127;32;20185;-60
2023/07/17 00:02:46;;;;;;;1.23;1.13;;;;;;;23.69;81.88;95659.75;4345008;32;20235;-61
2023/07/17 00:05:12;;;;;;;3.03;1.17;;;;;;;23.67;81.65;95645.78;4357312;32;20251;-60
2023/07/17 00:07:39;;;;;;;0.83;0.73;;;;;;;23.67;81.40;95653.16;4345321;32;20251;-60
2023/07/17 00:10:05;;;;;;;1.70;1.13;;;;;;;23.64;82.00;95657.37;4347825;32;20189;-60
2023/07/17 00:12:31;;;;;;;1.43;1.33;;;;;;;23.61;82.53;95658.09;4349486;32;20260;-60
2023/07/17 00:14:56;;;;;;;1.03;1.03;;;;;;;23.62;82.71;95665.84;4357164;32;20185;-60
2023/07/17 00:17:22;;;;;;;1.27;1.27;;;;;;;23.61;82.22;95656.16;4349368;32;20229;-61
2023/07/17 00:19:54;;;;;;;1.07;1.07;;;;;;;23.65;81.67;95658.94;4341539;32;20224;-60
2023/07/17 00:22:21;;;;;;;0.47;0.47;;;;;;;23.67;81.54;95655.84;4340934;32;20190;-59
2023/07/17 00:24:47;;;;;;;0.70;0.70;;;;;;;23.63;82.47;95663.94;4331265;32;20207;-60
2023/07/17 00:27:12;;;;;;;0.40;0.40;;;;;;;23.64;82.55;95674.41;4343643;32;20232;-60
2023/07/17 00:29:37;;;;;;;0.67;0.67;;;;;;;23.59;83.25;95674.72;4345760;32;20216;-59
2023/07/17 00:32:03;;;;;;;0.97;0.97;;;;;;;23.50;84.12;95673.38;4349278;32;20233;-60
2023/07/17 00:34:28;;;;;;;1.23;1.23;;;;;;;23.53;83.21;95678.09;4349907;32;20268;-60
2023/07/17 00:36:54;;;;;;;1.23;1.23;;;;;;;23.56;82.81;95682.78;4341393;32;20194;-60
2023/07/17 00:39:19;;;;;;;0.67;0.67;;;;;;;23.60;82.30;95668.16;4344606;32;20250;-60
2023/07/17 00:41:45;;;;;;;1.43;1.03;;;;;;;23.64;82.11;95677.13;4344775;32;20197;-60
2023/07/17 00:44:11;;;;;;;0.50;0.50;;;;;;;23.64;82.45;95663.56;4350248;32;20268;-59
2023/07/17 00:46:36;;;;;;;0.87;0.87;;;;;;;23.64;82.56;95649.25;4349837;32;20193;-60
2023/07/17 00:49:03;;;;;;;1.43;1.43;;;;;;;23.63;82.43;95658.50;4349699;32;20235;-60
2023/07/17 00:51:30;;;;;;;0.67;0.60;;;;;;;23.61;83.32;95675.12;4339984;32;20269;-60
2023/07/17 00:53:56;;;;;;;0.70;0.70;;;;;;;23.59;83.58;95677.44;4352064;32;20212;-60
2023/07/17 00:56:22;;;;;;;1.07;1.07;;;;;;;23.55;85.12;95675.81;4338826;32;20189;-60
2023/07/17 00:58:47;;;;;;;3.40;1.17;;;;;;;23.53;84.68;95657.22;4339575;32;20193;-60
2023/07/17 01:01:12;;;;;;;0.50;0.50;;;;;;;23.51;84.55;95664.13;4361500;32;20247;-60
2023/07/17 01:03:39;;;;;;;1.60;0.63;;;;;;;23.53;85.27;95659.94;4346926;32;20235;-60
2023/07/17 01:06:04;;;;;;;1.00;0.80;;;;;;;23.51;85.73;95669.53;4350299;32;20197;-60
2023/07/17 01:08:31;;;;;;;1.57;1.47;;;;;;;23.48;86.23;95673.00;4354231;32;20240;-60
2023/07/17 01:10:56;;;;;;;1.20;1.17;;;;;;;23.46;85.49;95667.16;4341745;32;20212;-61
2023/07/17 01:13:22;;;;;;;0.67;0.60;;;;;;;23.47;85.05;95647.06;4341732;32;20186;-60
2023/07/17 01:15:47;;;;;;;0.60;0.60;;;;;;;23.48;85.00;95648.63;4355943;32;20197;-60
2023/07/17 01:18:13;;;;;;;0.67;0.67;;;;;;;23.48;84.98;95654.81;4347060;32;20258;-60
2023/07/17 01:20:38;;;;;;;0.83;0.83;;;;;;;23.49;84.81;95652.88;4362620;32;20200;-60
2023/07/17 01:23:04;;;;;;;0.57;0.57;;;;;;;23.50;84.95;95651.72;4342015;32;20249;-60
2023/07/17 01:25:29;;;;;;;0.40;0.40;;;;;;;23.47;84.73;95647.84;4346206;32;20208;-60
2023/07/17 01:27:55;;;;;;;0.70;0.70;;;;;;;23.45;85.30;95652.06;4360047;32;20181;-60
2023/07/17 01:30:21;;;;;;;16.13;1.40;;;;;;;23.43;85.38;95651.66;4337136;32;20200;-60
2023/07/17 01:32:46;;;;;;;0.87;0.87;;;;;;;23.41;85.98;95651.25;4356183;32;20211;-60
2023/07/17 01:35:11;;;;;;;3.30;0.80;;;;;;;23.36;86.65;95657.75;4347730;32;20189;-60
2023/07/17 01:37:37;;;;;;;0.80;0.80;;;;;;;23.35;85.81;95650.00;4344677;32;20194;-60
2023/07/17 01:40:08;;;;;;;0.97;0.93;;;;;;;23.37;85.49;95636.88;4345495;32;20204;-60
2023/07/17 01:42:33;;;;;;;1.60;0.90;;;;;;;23.36;85.35;95641.50;4340029;32;20190;-61
2023/07/17 01:44:58;;;;;;;0.83;0.83;;;;;;;23.31;85.06;95631.75;4344168;32;20312;-60
2023/07/17 01:47:24;;;;;;;0.43;0.43;;;;;;;23.31;85.00;95631.75;4343827;32;20197;-61
2023/07/17 01:49:49;;;;;;;2.23;1.03;;;;;;;23.31;84.85;95626.34;4352051;32;20204;-60
2023/07/17 01:52:14;;;;;;;1.90;1.20;;;;;;;23.26;85.09;95626.69;4344684;32;20193;-60
2023/07/17 01:54:39;;;;;;;0.90;0.90;;;;;;;23.26;85.23;95632.09;4359017;32;20208;-60
2023/07/17 01:57:05;;;;;;;1.00;1.00;;;;;;;23.24;85.72;95628.97;4339923;32;20221;-60
2023/07/17 01:59:30;;;;;;;1.30;1.20;;;;;;;23.23;85.37;95638.25;4344696;32;20189;-60
2023/07/17 02:01:56;;;;;;;8.37;1.13;;;;;;;23.22;85.24;95638.59;4347680;32;20277;-60
2023/07/17 02:04:21;;;;;;;0.53;0.53;;;;;;;23.23;85.42;95637.47;4342878;32;20249;-60
2023/07/17 02:06:46;;;;;;;0.80;0.80;;;;;;;23.23;85.33;95640.94;4356118;32;20243;-60
2023/07/17 02:09:12;;;;;;;0.53;0.53;;;;;;;23.22;85.11;95647.50;4338314;32;20314;-60
2023/07/17 02:11:38;;;;;;;0.67;0.67;;;;;;;23.23;84.97;95649.06;4359064;32;20181;-61
2023/07/17 02:14:03;;;;;;;0.67;0.67;;;;;;;23.20;85.53;95654.44;4345088;32;20181;-60
2023/07/17 02:16:29;;;;;;;0.70;0.70;;;;;;;23.18;85.89;95646.69;4354479;32;20260;-60
2023/07/17 02:18:54;;;;;;;1.53;1.53;;;;;;;23.17;85.90;95636.22;4340577;32;20253;-60
2023/07/17 02:21:19;;;;;;;0.40;0.40;;;;;;;23.17;86.11;95638.91;4355506;32;20201;-60
2023/07/17 02:23:44;;;;;;;1.50;1.40;;;;;;;23.14;86.60;95636.94;4358497;32;20189;-60
2023/07/17 02:26:11;;;;;;;1.27;0.70;;;;;;;23.10;86.98;95639.59;4355976;32;20195;-60
2023/07/17 02:28:36;;;;;;;0.73;0.73;;;;;;;23.14;87.07;95640.44;4342688;32;20260;-60
2023/07/17 02:31:02;;;;;;;0.93;0.93;;;;;;;23.10;87.90;95649.63;4337308;32;20206;-60
2023/07/17 02:33:27;;;;;;;0.83;0.83;;;;;;;23.07;88.41;95651.16;4344751;32;20200;-60
2023/07/17 02:35:52;;;;;;;1.20;1.10;;;;;;;23.06;89.01;95643.41;4357413;32;20292;-60
2023/07/17 02:38:18;;;;;;;2.20;1.50;;;;;;;23.04;89.51;95646.50;4345562;32;20216;-59
2023/07/17 02:40:43;;;;;;;1.20;1.20;;;;;;;23.04;89.07;95660.03;4343729;32;20200;-60
2023/07/17 02:43:09;;;;;;;0.80;0.80;;;;;;;23.03;90.05;95673.91;4358142;32;20209;-59
2023/07/17 02:45:36;;;;;;;0.57;0.57;;;;;;;23.03;89.84;95677.41;4350917;32;20228;-60
2023/07/17 02:48:01;;;;;;;0.73;0.73;;;;;;;22.98;89.45;95677.72;4351263;32;20186;-60
2023/07/17 02:50:26;;;;;;;0.63;0.63;;;;;;;22.96;88.87;95661.06;4336560;32;20189;-60
2023/07/17 02:52:52;;;;;;;1.00;1.00;;;;;;;22.98;88.30;95668.81;4339933;32;20208;-60
2023/07/17 02:55:17;;;;;;;0.67;0.67;;;;;;;22.99;86.43;95654.91;4333060;32;20189;-60
2023/07/17 02:57:43;;;;;;;0.60;0.60;;;;;;;22.91;86.56;95639.72;4341697;32;20224;-61
2023/07/17 03:00:13;;;;;;;0.90;0.90;;;;;;;22.81;86.43;95633.00;4354735;32;20204;-60
2023/07/17 03:02:42;;;;;;;1.00;0.93;;;;;;;22.84;86.72;95635.00;4347734;32;20201;-60
2023/07/17 03:05:08;;;;;;;0.57;0.57;;;;;;;22.83;86.62;95629.94;4336785;32;20256;-60
2023/07/17 03:07:35;;;;;;;2.20;1.03;;;;;;;22.78;86.86;95627.53;4345326;32;20223;-60
2023/07/17 03:10:02;;;;;;;1.10;1.10;;;;;;;22.91;85.64;95637.00;4345160;32;20219;-60
2023/07/17 03:12:27;;;;;;;1.07;1.07;;;;;;;22.86;85.13;95632.69;4351456;32;20202;-60
2023/07/17 03:14:52;;;;;;;2.00;1.90;;;;;;;22.83;85.95;95636.13;4335630;32;20232;-60
2023/07/17 03:17:18;;;;;;;1.20;1.00;;;;;;;22.76;86.04;95644.09;4360831;32;20203;-60
2023/07/17 03:19:43;;;;;;;1.30;1.27;;;;;;;22.89;85.92;95639.28;4326506;32;20241;-60
2023/07/17 03:22:08;;;;;;;1.30;1.20;;;;;;;22.88;86.07;95653.97;4352178;32;20201;-60
2023/07/17 03:24:34;;;;;;;1.07;1.07;;;;;;;22.84;86.21;95663.97;4342248;32;20200;-60
2023/07/17 03:27:00;;;;;;;1.03;1.03;;;;;;;22.82;86.42;95668.97;4342952;32;20272;-60
2023/07/17 03:29:26;;;;;;;0.60;0.60;;;;;;;22.80;86.09;95677.44;4335780;32;20189;-60
2023/07/17 03:31:52;;;;;;;1.10;1.10;;;;;;;22.85;85.52;95684.47;4352496;32;20193;-60
2023/07/17 03:34:17;;;;;;;1.27;1.27;;;;;;;22.74;87.08;95686.19;4332123;32;20189;-60
2023/07/17 03:36:42;;;;;;;1.70;0.80;;;;;;;22.65;88.41;95691.06;4354347;32;20316;-60
2023/07/17 03:39:08;;;;;;;1.23;1.17;;;;;;;22.53;89.30;95695.50;4339582;32;20240;-60
2023/07/17 03:41:33;;;;;;;0.93;0.93;;;;;;;22.36;90.38;95692.50;4356835;32;20189;-59
2023/07/17 03:44:01;;;;;;;1.23;1.13;;;;;;;22.33;90.12;95682.41;4354014;32;20356;-60
2023/07/17 03:46:27;;;;;;;0.87;0.87;;;;;;;22.34;89.99;95679.34;4352754;32;20197;-60
2023/07/17 03:48:52;;;;;;;1.67;1.57;;;;;;;22.32;90.42;95681.63;4351322;32;20334;-59
2023/07/17 03:51:17;;;;;;;2.37;1.60;;;;;;;22.32;90.41;95687.03;4349499;32;20189;-60
2023/07/17 03:53:43;;;;;;;0.97;0.97;;;;;;;22.26;90.41;95693.84;4340207;32;20266;-60
2023/07/17 03:56:08;;;;;;;0.80;0.80;;;;;;;22.33;89.89;95688.59;4355377;32;20205;-60
2023/07/17 03:58:33;;;;;;;1.00;1.00;;;;;;;22.37;89.85;95694.06;4357840;32;20189;-60
2023/07/17 04:00:58;;;;;;;0.93;0.93;;;;;;;22.40;89.61;95699.53;4332764;32;20276;-60
2023/07/17 04:03:24;;;;;;;1.73;1.63;;;;;;;22.42;89.75;95699.97;4333493;32;20207;-60
2023/07/17 04:05:49;;;;;;;0.93;0.67;;;;;;;22.39;90.15;95714.19;4333235;32;20288;-60
2023/07/17 04:08:15;;;;;;;0.73;0.73;;;;;;;22.33;91.22;95707.50;4336429;32;20236;-60
2023/07/17 04:10:40;;;;;;;1.83;1.73;;;;;;;22.27;91.41;95701.63;4353501;32;20219;-60
2023/07/17 04:13:05;;;;;;;0.83;0.83;;;;;;;22.20;92.27;95689.91;4344887;32;20189;-59
2023/07/17 04:15:31;;;;;;;1.20;1.10;;;;;;;22.16;92.58;95694.47;4346902;32;20253;-60
2023/07/17 04:17:56;;;;;;;0.90;0.90;;;;;;;22.13;93.05;95689.78;4338951;32;20189;-59
2023/07/17 04:20:21;;;;;;;1.00;1.00;;;;;;;22.19;92.58;95704.56;4351633;32;20204;-60
2023/07/17 04:22:47;;;;;;;0.97;0.97;;;;;;;22.24;91.92;95706.94;4345232;32;20197;-60
2023/07/17 04:25:12;;;;;;;0.97;0.97;;;;;;;22.26;91.81;95723.59;4344711;32;20194;-60
2023/07/17 04:27:38;;;;;;;0.80;0.80;;;;;;;22.24;92.12;95733.97;4354300;32;20257;-60
2023/07/17 04:30:04;;;;;;;0.40;0.40;;;;;;;22.18;92.35;95735.44;4342933;32;20196;-60
2023/07/17 04:32:29;;;;;;;5.07;2.00;;;;;;;22.22;92.13;95736.28;4350519;32;20189;-60
2023/07/17 04:34:56;;;;;;;1.20;1.20;;;;;;;22.25;91.64;95744.44;4335354;32;20190;-59
2023/07/17 04:37:21;;;;;;;4.30;1.40;;;;;;;22.16;91.93;95753.94;4353617;32;20235;-59
2023/07/17 04:39:47;;;;;;;1.30;1.30;;;;;;;22.27;91.27;95752.97;4345659;32;20197;-60
2023/07/17 04:42:13;;;;;;;0.60;0.60;;;;;;;22.18;91.29;95746.25;4350309;32;20184;-59
2023/07/17 04:44:38;;;;;;;1.60;1.40;;;;;;;22.15;91.47;95742.34;4357355;32;20186;-61
2023/07/17 04:47:03;;;;;;;1.57;1.57;;;;;;;22.12;91.59;95753.06;4337136;32;20185;-59
2023/07/17 04:49:29;;;;;;;0.93;0.90;;;;;;;22.11;91.99;95751.50;4338661;32;20227;-60
2023/07/17 04:51:54;;;;;;;1.50;1.17;;;;;;;22.21;91.23;95745.53;4335299;32;20223;-60
2023/07/17 04:54:19;;;;;;;0.47;0.47;;;;;;;22.19;91.29;95735.09;4358083;32;20211;-59
2023/07/17 04:56:44;;;;;;;0.97;0.97;;;;;;;22.11;91.44;95724.47;4356307;32;20239;-60
2023/07/17 04:59:10;;;;;;;0.73;0.73;;;;;;;22.19;91.13;95739.69;4352451;32;20193;-62
2023/07/17 05:01:35;;;;;;;4.37;1.90;;;;;;;22.20;91.30;95743.97;4344203;32;20239;-60
2023/07/17 05:04:00;;;;;;;5.40;1.73;;;;;;;22.22;91.39;95742.47;4335066;32;20221;-59
2023/07/17 05:06:26;;;;;;;0.87;0.87;;;;;;;22.19;91.36;95775.62;4341462;32;20211;-59
2023/07/17 05:08:51;;;;;;;0.80;0.80;;;;;;;22.26;90.99;95780.38;4336307;32;20252;-59
2023/07/17 05:11:17;;;;;;;0.83;0.83;;;;;;;22.29;91.02;95779.66;4355096;32;20197;-60
2023/07/17 05:13:42;;;;;;;0.90;0.90;;;;;;;22.23;91.04;95791.91;4348342;32;20201;-59
2023/07/17 05:16:08;;;;;;;0.67;0.67;;;;;;;22.21;91.45;95800.38;4358471;32;20188;-60
2023/07/17 05:18:33;;;;;;;1.73;1.63;;;;;;;22.16;91.28;95805.28;4354308;32;20249;-59
2023/07/17 05:20:58;;;;;;;1.57;1.03;;;;;;;22.11;91.67;95800.16;4354815;32;20229;-60
2023/07/17 05:23:24;;;;;;;1.73;1.63;;;;;;;22.11;91.54;95805.56;4346999;32;20218;-59
2023/07/17 05:25:54;;;;;;;0.60;0.60;;;;;;;22.07;91.91;95802.00;4344783;32;20198;-60
2023/07/17 05:28:20;;;;;;;0.77;0.77;;;;;;;22.08;92.17;95806.25;4349788;32;20237;-60
2023/07/17 05:30:46;;;;;;;1.93;1.70;;;;;;;22.11;91.71;95813.66;4338596;32;20242;-60
2023/07/17 05:33:11;;;;;;;1.07;1.07;;;;;;;22.06;91.85;95816.63;4344603;32;20212;-59
2023/07/17 05:35:37;;;;;;;1.43;1.43;;;;;;;22.23;90.26;95814.34;4344312;32;20182;-60
2023/07/17 05:38:03;;;;;;;0.97;0.97;;;;;;;22.24;90.28;95821.28;4335411;32;20186;-59
2023/07/17 05:40:28;;;;;;;0.97;0.97;;;;;;;22.07;91.61;95821.69;4352274;32;20256;-59
2023/07/17 05:42:54;;;;;;;1.57;1.47;;;;;;;22.01;91.82;95816.94;4342856;32;20215;-59
2023/07/17 05:45:19;;;;;;;1.83;1.73;;;;;;;22.16;91.35;95824.19;4336615;32;20243;-59
2023/07/17 05:47:44;;;;;;;1.23;1.23;;;;;;;22.08;91.95;95827.88;4348467;32;20253;-60
2023/07/17 05:50:10;;;;;;;1.67;1.57;;;;;;;22.13;91.93;95833.81;4356722;32;20188;-60
2023/07/17 05:52:35;;;;;;;2.17;2.03;;;;;;;22.06;91.95;95819.34;4345823;32;20193;-59
2023/07/17 05:55:01;;;;;;;2.70;2.53;;;;;;;22.04;92.15;95821.63;4342724;32;20212;-59
2023/07/17 05:57:27;;;;;;;1.53;1.43;;;;;;;21.99;92.11;95830.78;4344466;32;20185;-60
2023/07/17 05:59:53;;;;;;;1.70;1.60;;;;;;;22.07;91.83;95837.13;4344350;32;20234;-60
2023/07/17 06:02:18;;;;;;;2.07;1.87;;;;;;;22.09;91.94;95834.84;4344521;32;20205;-60
2023/07/17 06:04:44;;;;;;;2.43;2.23;;;;;;;22.50;88.64;95842.28;4354643;32;20237;-60
2023/07/17 06:07:10;;;;;;;1.13;1.13;;;;;;;22.68;87.12;95847.22;4349974;32;20261;-60
2023/07/17 06:09:35;;;;;;;1.17;1.17;;;;;;;22.50;86.80;95844.97;4344944;32;20181;-60
2023/07/17 06:12:01;;;;;;;1.33;1.27;;;;;;;22.46;86.07;95854.16;4342499;32;20198;-60
2023/07/17 06:14:26;;;;;;;0.70;0.70;;;;;;;22.43;85.65;95850.25;4356433;32;20253;-60
2023/07/17 06:16:52;;;;;;;0.80;0.80;;;;;;;22.44;84.55;95841.00;4344771;32;20193;-59
2023/07/17 06:19:17;;;;;;;0.80;0.80;;;;;;;22.38;82.43;95853.25;4356935;32;20229;-60
2023/07/17 06:21:42;;;;;;;0.97;0.97;;;;;;;22.27;83.21;95863.03;4351296;32;20253;-60
2023/07/17 06:24:08;;;;;;;1.33;1.23;;;;;;;22.40;82.59;95861.78;4343803;32;20192;-60
2023/07/17 06:26:34;;;;;;;1.50;1.33;;;;;;;22.40;81.70;95864.50;4347113;32;20231;-60
2023/07/17 06:29:00;;;;;;;1.43;1.37;;;;;;;22.39;81.25;95849.41;4349973;32;20216;-60
2023/07/17 06:31:25;;;;;;;1.10;1.10;;;;;;;22.29;81.84;95853.44;4349514;32;20206;-60
2023/07/17 06:33:50;;;;;;;1.00;1.00;;;;;;;21.45;84.19;95866.59;4344036;32;20193;-59
2023/07/17 06:36:16;;;;;;;1.00;1.00;;;;;;;22.03;83.21;95871.44;4346928;32;20213;-59
2023/07/17 06:38:41;;;;;;;1.40;0.80;;;;;;;22.16;82.27;95875.56;4347282;32;20291;-60
2023/07/17 06:41:06;;;;;;;0.90;0.90;;;;;;;22.42;80.41;95881.16;4361792;32;20189;-60
2023/07/17 06:43:32;;;;;;;1.87;1.77;;;;;;;22.47;79.05;95891.66;4355068;32;20196;-59
2023/07/17 06:45:57;;;;;;;0.90;0.90;;;;;;;22.31;79.21;95890.94;4338461;32;20212;-59
2023/07/17 06:48:22;;;;;;;0.40;0.40;;;;;;;22.23;79.07;95890.03;4344117;32;20208;-60
2023/07/17 06:50:48;;;;;;;0.50;0.50;;;;;;;22.34;78.84;95895.63;4359559;32;20185;-60
2023/07/17 06:53:13;;;;;;;1.23;1.03;;;;;;;22.34;79.02;95900.25;4352213;32;20233;-60
2023/07/17 06:55:38;;;;;;;1.03;1.03;;;;;;;22.39;78.80;95891.88;4354560;32;20227;-59
2023/07/17 06:58:04;;;;;;;0.70;0.70;;;;;;;22.38;78.66;95901.91;4342014;32;20201;-60
2023/07/17 07:00:29;;;;;;;0.90;0.90;;;;;;;22.28;78.93;95903.25;4339127;32;20202;-60
2023/07/17 07:02:54;;;;;;;0.90;0.90;;;;;;;22.25;78.89;95914.75;4358021;32;20185;-59
2023/07/17 07:05:20;;;;;;;1.07;1.07;;;;;;;22.26;79.46;95915.53;4352075;32;20189;-60
2023/07/17 07:07:45;;;;;;;1.17;0.90;;;;;;;22.26;79.09;95920.94;4352430;32;20213;-60
2023/07/17 07:10:10;;;;;;;0.93;0.93;;;;;;;22.07;80.14;95920.91;4341996;32;20197;-60
2023/07/17 07:12:36;;;;;;;1.27;0.83;;;;;;;22.20;79.50;95925.88;4345888;32;20223;-59
2023/07/17 07:15:01;;;;;;;0.83;0.83;;;;;;;22.14;80.21;95924.56;4329326;32;20314;-60
2023/07/17 07:17:27;;;;;;;1.13;1.13;;;;;;;22.17;80.75;95934.69;4338927;32;20193;-60
2023/07/17 07:19:52;;;;;;;0.90;0.90;;;;;;;22.14;81.34;95929.19;4352994;32;20190;-60
2023/07/17 07:22:17;;;;;;;0.30;0.30;;;;;;;21.95;82.51;95927.97;4350421;32;20213;-60
2023/07/17 07:24:46;;;;;;;1.43;0.97;;;;;;;22.06;81.16;95933.63;4342550;32;20240;-61
2023/07/17 07:27:11;;;;;;;0.60;0.60;;;;;;;22.14;79.76;95935.38;4349582;32;20247;-63
2023/07/17 07:29:37;;;;;;;0.83;0.83;;;;;;;22.19;79.17;95929.72;4354314;32;20198;-60
2023/07/17 07:32:02;;;;;;;0.80;0.80;;;;;;;22.08;80.19;95928.66;4345032;32;20212;-59
2023/07/17 07:34:28;;;;;;;0.67;0.67;;;;;;;22.19;79.28;95928.94;4338838;32;20207;-60
2023/07/17 07:36:53;;;;;;;1.23;1.00;;;;;;;22.29;78.64;95934.56;4341637;32;20251;-60
2023/07/17 07:39:18;;;;;;;0.60;0.60;;;;;;;21.88;79.62;95938.59;4338150;32;20312;-60
2023/07/17 07:41:45;;;;;;;0.73;0.50;;;;;;;22.03;79.67;95937.03;4338600;32;20250;-59
2023/07/17 07:44:10;;;;;;;1.03;0.93;;;;;;;22.17;77.80;95934.69;4342198;32;20193;-60
2023/07/17 07:46:35;;;;;;;0.67;0.67;;;;;;;22.34;77.66;95933.50;4344238;32;20205;-61
2023/07/17 07:49:01;;;;;;;1.17;1.07;;;;;;;22.26;76.97;95935.25;4343499;32;20284;-60
2023/07/17 07:51:26;;;;;;;0.80;0.80;;;;;;;22.19;78.07;95931.63;4341223;32;20207;-61
2023/07/17 07:53:51;;;;;;;0.60;0.60;;;;;;;22.28;77.71;95918.69;4337937;32;20212;-60
2023/07/17 07:56:17;;;;;;;0.93;0.93;;;;;;;22.15;80.08;95919.94;4335355;32;20209;-60
2023/07/17 07:58:42;;;;;;;0.90;0.90;;;;;;;22.29;78.32;95920.25;4335552;32;20206;-60
2023/07/17 08:01:08;;;;;;;0.83;0.83;;;;;;;21.64;79.99;95921.81;4344490;32;20251;-60
2023/07/17 08:03:34;;;;;;;1.00;0.70;;;;;;;21.97;80.51;95924.94;4335260;32;20193;-60
2023/07/17 08:05:59;;;;;;;0.57;0.57;;;;;;;21.69;79.25;95926.94;4333982;32;20251;-60
2023/07/17 08:08:25;;;;;;;1.57;1.27;;;;;;;22.02;79.86;95918.50;4332058;32;20260;-60
2023/07/17 08:10:53;;;;;;;0.63;0.63;;;;;;;22.09;79.93;95926.75;4335631;32;20248;-60
2023/07/17 08:13:19;;;;;;;1.00;1.00;;;;;;;21.28;76.16;95915.53;4339319;32;20208;-60
2023/07/17 08:15:46;;;;;;;0.90;0.90;;;;;;;21.55;80.38;95920.06;4338158;32;20216;-60
2023/07/17 08:18:12;;;;;;;1.43;1.07;;;;;;;21.33;80.65;95911.78;4339103;32;20197;-60
2023/07/17 08:20:37;;;;;;;1.57;1.23;;;;;;;21.71;80.98;95920.06;4347891;32;20204;-60
2023/07/17 08:23:02;;;;;;;1.03;1.03;;;;;;;21.76;81.96;95919.81;4335763;32;20251;-60
2023/07/17 08:25:28;;;;;;;0.83;0.83;;;;;;;21.82;80.01;95923.78;4347855;32;20282;-60
2023/07/17 08:27:54;;;;;;;0.70;0.70;;;;;;;21.66;80.73;95920.31;4334957;32;20233;-59
2023/07/17 08:30:20;;;;;;;0.80;0.80;;;;;;;21.87;79.98;95923.53;4342531;32;20181;-60
2023/07/17 08:32:45;;;;;;;0.60;0.60;;;;;;;21.96;81.69;95917.94;4352288;32;20212;-60
2023/07/17 08:35:11;;;;;;;0.90;0.90;;;;;;;22.24;79.95;95915.91;4333931;32;20198;-60
2023/07/17 08:37:36;;;;;;;0.50;0.50;;;;;;;22.20;80.09;95922.38;4355976;32;20232;-60
2023/07/17 08:40:02;;;;;;;1.00;1.00;;;;;;;22.31;79.76;95917.97;4339900;32;20208;-59
2023/07/17 08:42:27;;;;;;;0.57;0.57;;;;;;;22.29;80.48;95909.44;4354112;32;20201;-61
2023/07/17 08:44:53;;;;;;;1.17;1.07;;;;;;;22.13;80.72;95922.22;4355594;32;20302;-60
2023/07/17 08:47:20;;;;;;;0.50;0.50;;;;;;;21.87;80.80;95917.34;4343174;32;20236;-60
2023/07/17 08:49:46;;;;;;;0.70;0.70;;;;;;;22.18;80.23;95936.25;4345994;32;20212;-60
2023/07/17 08:52:13;;;;;;;0.57;0.57;;;;;;;22.44;79.36;95934.88;4331850;32;20232;-60
2023/07/17 08:54:38;;;;;;;0.80;0.80;;;;;;;22.44;78.31;95946.47;4356876;32;20196;-60
2023/07/17 08:57:04;;;;;;;1.13;1.13;;;;;;;22.47;77.99;95943.03;4351649;32;20215;-60
2023/07/17 08:59:39;;;;;;;0.63;0.63;;;;;;;22.51;78.17;95929.59;4350001;32;20284;-60
2023/07/17 09:02:04;;;;;;;1.07;1.07;;;;;;;22.39;75.59;95925.13;4353141;32;20223;-60
2023/07/17 09:04:31;;;;;;;6.43;1.60;;;;;;;22.62;77.63;95904.34;4342652;32;20189;-60
2023/07/17 09:06:56;;;;;;;1.20;1.17;;;;;;;22.58;77.21;95900.78;4340974;32;20213;-60
2023/07/17 09:09:21;;;;;;;17.10;1.17;;;;;;;22.28;76.67;95919.47;4338642;32;20198;-60
2023/07/17 09:12:05;;;;;;;1.57;1.47;;;;;;;22.03;76.69;95920.81;4338301;32;20185;-60
2023/07/17 09:14:30;;;;;;;0.77;0.77;;;;;;;22.28;76.84;95918.69;4341675;32;20185;-60
2023/07/17 09:17:01;;;;;;;1.93;1.37;;;;;;;22.50;77.27;95918.00;4341137;32;20227;-60
2023/07/17 09:19:29;;;;;;;1.30;1.30;;;;;;;22.60;77.52;95924.78;4344384;32;20177;-60
2023/07/17 09:21:58;;;;;;;1.60;1.50;;;;;;;22.75;77.09;95925.84;4343234;32;20255;-60
2023/07/17 09:24:27;;;;;;;0.83;0.83;;;;;;;22.86;76.34;95930.34;4347562;32;20208;-60
2023/07/17 09:26:56;;;;;;;1.93;1.20;;;;;;;22.99;75.64;95925.56;4336695;32;20208;-60
2023/07/17 09:29:23;;;;;;;0.73;0.73;;;;;;;22.74;73.17;95916.94;4362360;32;20267;-60
2023/07/17 09:31:48;;;;;;;0.70;0.70;;;;;;;22.38;73.72;95928.97;4342376;32;20193;-60
2023/07/17 09:34:15;;;;;;;1.27;1.17;;;;;;;22.40;75.60;95915.09;4360927;32;20289;-59
2023/07/17 09:36:41;;;;;;;1.47;0.93;;;;;;;22.60;75.79;95913.97;4339418;32;20212;-61
2023/07/17 09:39:07;;;;;;;1.10;1.10;;;;;;;22.57;75.57;95912.75;4358599;32;20189;-60
2023/07/17 09:41:33;;;;;;;0.43;0.43;;;;;;;22.47;72.28;95907.87;4343815;32;20201;-61
2023/07/17 09:43:58;;;;;;;1.53;1.43;;;;;;;22.59;72.85;95906.97;4345516;32;20221;-60
2023/07/17 09:46:25;;;;;;;1.23;1.23;;;;;;;22.68;74.86;95914.88;4351856;32;20219;-61
2023/07/17 09:48:52;;;;;;;0.80;0.80;;;;;;;22.76;74.29;95911.16;4341844;32;20228;-60
2023/07/17 09:51:19;;;;;;;1.17;1.17;;;;;;;22.84;73.96;95912.91;4340603;32;20193;-60
2023/07/17 09:53:45;;;;;;;0.80;0.80;;;;;;;22.70;74.94;95909.88;4348686;32;20196;-60
2023/07/17 09:56:14;;;;;;;0.90;0.90;;;;;;;22.89;74.32;95910.69;4355533;32;20215;-60
2023/07/17 09:58:44;;;;;;;0.80;0.80;;;;;;;22.59;68.54;95921.28;4344289;32;20190;-60
2023/07/17 10:01:13;;;;;;;0.97;0.97;;;;;;;22.68;70.85;95921.06;4336692;32;20270;-60
2023/07/17 10:03:39;;;;;;;1.10;1.10;;;;;;;22.80;71.51;95906.66;4360922;32;20219;-60
2023/07/17 10:06:04;;;;;;;2.10;1.57;;;;;;;22.98;71.17;95907.78;4359988;32;20292;-60
2023/07/17 10:08:31;;;;;;;1.03;1.03;;;;;;;22.98;71.77;95902.34;4348457;32;20193;-60
2023/07/17 10:10:56;;;;;;;0.60;0.60;;;;;;;23.07;71.15;95904.84;4336829;32;20197;-60
2023/07/17 10:13:22;;;;;;;5.33;1.63;;;;;;;23.13;71.38;95903.38;4346678;32;20252;-60
2023/07/17 10:15:47;;;;;;;0.73;0.73;;;;;;;23.17;70.46;95888.78;4353651;32;20189;-60
2023/07/17 10:18:13;;;;;;;0.80;0.80;;;;;;;23.20;71.31;95892.69;4345396;32;20232;-60
2023/07/17 10:20:39;;;;;;;1.30;1.30;;;;;;;23.33;71.72;95899.50;4335166;32;20198;-59
2023/07/17 10:23:21;;;;;;;0.83;0.83;;;;;;;23.31;67.96;95899.84;4343168;32;20196;-60
2023/07/17 10:25:46;;;;;;;0.80;0.80;;;;;;;23.39;69.35;95889.16;4345668;32;20236;-60
2023/07/17 10:28:11;;;;;;;1.90;1.80;;;;;;;23.43;69.66;95892.72;4355463;32;20232;-61
2023/07/17 10:30:37;;;;;;;0.60;0.60;;;;;;;23.43;68.85;95890.78;4341788;32;20193;-60
2023/07/17 10:33:13;;;;;;;0.67;0.67;;;;;;;23.54;69.60;95890.97;4339368;32;20189;-59
2023/07/17 10:35:51;;;;;;;0.67;0.67;;;;;;;23.45;67.30;95885.00;4346527;32;20242;-60
2023/07/17 10:38:27;;;;;;;1.27;1.27;;;;;;;23.55;68.56;95890.63;4349909;32;20194;-60
2023/07/17 10:41:02;;;;;;;1.50;1.50;;;;;;;23.60;66.56;95884.13;4345806;32;20193;-60
2023/07/17 10:43:28;;;;;;;0.97;0.97;;;;;;;23.58;66.99;95889.91;4360442;32;20210;-61
2023/07/17 10:45:53;;;;;;;1.70;1.40;;;;;;;23.62;66.93;95888.03;4338402;32;20202;-60
2023/07/17 10:48:18;;;;;;;1.50;1.40;;;;;;;23.80;66.97;95890.22;4344042;32;20225;-60
2023/07/17 10:50:52;;;;;;;0.43;0.43;;;;;;;23.80;65.96;95876.69;4343068;32;20252;-60
2023/07/17 10:53:18;;;;;;;0.90;0.90;;;;;;;23.80;67.85;95877.47;4339730;32;20199;-60
2023/07/17 10:55:44;;;;;;;0.50;0.50;;;;;;;23.80;67.04;95872.03;4355910;32;20198;-60
2023/07/17 10:58:09;;;;;;;3.23;1.70;;;;;;;23.79;67.76;95875.13;4352433;32;20229;-63
2023/07/17 11:00:35;;;;;;;0.80;0.80;;;;;;;23.69;68.10;95873.81;4346505;32;20211;-60
2023/07/17 11:03:00;;;;;;;0.70;0.70;;;;;;;23.74;68.23;95861.87;4355722;32;20207;-59
2023/07/17 11:05:26;;;;;;;0.63;0.63;;;;;;;23.71;67.06;95862.59;4341552;32;20205;-60
2023/07/17 11:07:51;;;;;;;1.87;1.77;;;;;;;23.77;68.53;95864.63;4354893;32;20185;-63
2023/07/17 11:10:16;;;;;;;0.90;0.90;;;;;;;23.81;68.26;95864.69;4337464;32;20229;-63
2023/07/17 11:12:42;;;;;;;1.80;1.27;;;;;;;23.83;68.37;95860.47;4351456;32;20248;-63
2023/07/17 11:15:19;;;;;;;0.43;0.43;;;;;;;23.94;66.39;95861.41;4351367;32;20229;-63
2023/07/17 11:17:48;;;;;;;1.37;1.13;;;;;;;23.95;67.88;95868.38;4343261;32;20207;-63
2023/07/17 11:20:13;;;;;;;1.27;1.17;;;;;;;23.94;67.21;95866.81;4344534;32;20220;-63
2023/07/17 11:22:40;;;;;;;1.77;1.67;;;;;;;23.98;67.20;95870.37;4343365;32;20197;-65
2023/07/17 11:25:07;;;;;;;0.70;0.70;;;;;;;23.90;63.62;95865.22;4345246;32;20245;-63
2023/07/17 11:27:33;;;;;;;1.07;1.07;;;;;;;23.90;66.25;95857.84;4352845;32;20204;-63